Latest Weather Observations for Little Bay

IDN60801

Issued at 6:02 pm EST Wednesday 4 May 2016 (issued every 30 minutes, with the page automatically refreshed every 10 minutes)

About weather observations | Map of weather stations | Latest weather observations for NSW | Other Formats
Station Details ID: 066051 Name: LITTLE BAY (THE COAST GOLF CLUB) Lat: -33.98 Lon: 151.25 Height: 22.0 m
Data from the previous 72 hours. | See also: Recent months for locations in New South Wales
Date/Time
EST
Temp
°C
App
Temp
°C
Dew
Point
Rel
Hum
%
Delta-T
°C
Wind Press
QNH
hPa
Press
MSL
hPa
Rain
since 9 am
mm
Dir
 
Spd
km/h
Gust
km/h
Spd
kts
Gust
kts
04/06:00pm - - - - - S 13 20 7 11 - - -
04/05:30pm - - - - - S 13 17 7 9 - - -
04/05:00pm - - - - - S 11 15 6 8 - - -
04/04:30pm - - - - - SSE 13 17 7 9 - - -
04/04:00pm - - - - - SE 13 17 7 9 - - -
04/03:30pm - - - - - E 9 13 5 7 - - -
04/03:00pm - - - - - E 9 13 5 7 - - -
04/02:30pm - - - - - E 9 13 5 7 - - -
04/02:00pm - - - - - ESE 9 13 5 7 - - -
04/01:30pm - - - - - SE 11 13 6 7 - - -
04/01:00pm - - - - - SE 11 15 6 8 - - -
04/12:30pm - - - - - SE 7 9 4 5 - - -
04/12:00pm - - - - - WSW 7 11 4 6 - - -
04/11:30am - - - - - WSW 9 13 5 7 - - -
04/11:00am - - - - - WSW 7 13 4 7 - - -
04/10:30am - - - - - W 9 15 5 8 - - -
04/10:00am - - - - - W 11 17 6 9 - - -
04/09:30am - - - - - W 9 13 5 7 - - -
04/09:00am - - - - - W 9 13 5 7 - - -
04/08:30am - - - - - WNW 9 15 5 8 - - -
04/08:00am - - - - - WNW 11 17 6 9 - - -
04/07:30am - - - - - WNW 9 15 5 8 - - -
04/07:00am - - - - - WNW 9 13 5 7 - - -
04/06:30am - - - - - WNW 11 15 6 8 - - -
04/06:00am - - - - - NW 7 11 4 6 - - -
04/05:30am - - - - - NNW 9 13 5 7 - - -
04/05:00am - - - - - NNW 11 15 6 8 - - -
04/04:30am - - - - - NNW 11 15 6 8 - - -
04/04:00am - - - - - NNW 11 13 6 7 - - -
04/03:30am - - - - - NNW 9 13 5 7 - - -
04/03:00am - - - - - NNW 11 15 6 8 - - -
04/02:30am - - - - - NNW 11 15 6 8 - - -
04/02:00am - - - - - NNW 9 15 5 8 - - -
04/01:30am - - - - - NNW 11 17 6 9 - - -
04/01:00am - - - - - NNW 9 15 5 8 - - -
04/12:30am - - - - - NNW 6 9 3 5 - - -
04/12:00am - - - - - NW 6 9 3 5 - - -
 
Date/Time
EST
Temp
°C
App
Temp
°C
Dew
Point
Rel
Hum
%
Delta-T
°C
Wind Press
QNH
hPa
Press
MSL
hPa
Rain
since 9 am
mm
Dir
 
Spd
km/h
Gust
km/h
Spd
kts
Gust
kts
03/11:30pm - - - - - NNW 6 11 3 6 - - -
03/11:00pm - - - - - NW 7 11 4 6 - - -
03/10:30pm - - - - - NNW 4 6 2 3 - - -
03/10:00pm - - - - - NW 11 20 6 11 - - -
03/09:30pm - - - - - NNW 9 17 5 9 - - -
03/09:00pm - - - - - NNW 13 22 7 12 - - -
03/08:30pm - - - - - NNW 13 20 7 11 - - -
03/08:00pm - - - - - NW 9 17 5 9 - - -
03/07:30pm - - - - - NW 7 13 4 7 - - -
03/07:00pm - - - - - NW 7 13 4 7 - - -
03/06:30pm - - - - - NW 7 17 4 9 - - -
03/06:00pm - - - - - NW 6 9 3 5 - - -
03/05:30pm - - - - - NW 7 13 4 7 - - -
03/05:00pm - - - - - NW 11 22 6 12 - - -
03/04:30pm - - - - - NW 13 28 7 15 - - -
03/04:00pm - - - - - NW 15 26 8 14 - - -
03/03:30pm - - - - - WNW 13 24 7 13 - - -
03/03:00pm - - - - - WNW 17 26 9 14 - - -
03/02:30pm - - - - - NNW 15 26 8 14 - - -
03/02:00pm - - - - - NW 13 28 7 15 - - -
03/01:30pm - - - - - NW 15 26 8 14 - - -
03/01:00pm - - - - - NW 19 32 10 17 - - -
03/12:30pm - - - - - NW 17 35 9 19 - - -
03/12:00pm - - - - - NW 13 28 7 15 - - -
03/11:30am - - - - - NW 15 28 8 15 - - -
03/11:00am - - - - - WNW 13 26 7 14 - - -
03/10:30am - - - - - WNW 9 15 5 8 - - -
03/10:00am - - - - - W 6 9 3 5 - - -
03/09:30am - - - - - W 6 9 3 5 - - -
03/09:00am - - - - - WNW 7 9 4 5 - - -
03/08:30am - - - - - WNW 9 15 5 8 - - -
03/08:00am - - - - - WNW 11 15 6 8 - - -
03/07:30am - - - - - WNW 13 17 7 9 - - -
03/07:00am - - - - - WNW 11 13 6 7 - - -
03/06:30am - - - - - WNW 11 15 6 8 - - -
03/06:00am - - - - - WNW 11 15 6 8 - - -
03/05:30am - - - - - WNW 13 15 7 8 - - -
03/05:00am - - - - - WNW 11 13 6 7 - - -
03/04:30am - - - - - WNW 11 13 6 7 - - -
03/04:00am - - - - - W 9 13 5 7 - - -
03/03:30am - - - - - W 9 11 5 6 - - -
03/03:00am - - - - - W 9 11 5 6 - - -
03/02:30am - - - - - W 7 9 4 5 - - -
03/02:00am - - - - - W 7 11 4 6 - - -
03/01:30am - - - - - W 9 11 5 6 - - -
03/01:00am - - - - - WSW 11 13 6 7 - - -
03/12:30am - - - - - WSW 7 11 4 6 - - -
03/12:00am - - - - - W 9 11 5 6 - - -
 
Date/Time
EST
Temp
°C
App
Temp
°C
Dew
Point
Rel
Hum
%
Delta-T
°C
Wind Press
QNH
hPa
Press
MSL
hPa
Rain
since 9 am
mm
Dir
 
Spd
km/h
Gust
km/h
Spd
kts
Gust
kts
02/11:30pm - - - - - W 6 7 3 4 - - -
02/11:00pm - - - - - SW 9 11 5 6 - - -
02/10:30pm - - - - - SW 6 7 3 4 - - -
02/10:00pm - - - - - WSW 6 7 3 4 - - -
02/09:30pm - - - - - WSW 6 7 3 4 - - -
02/09:00pm - - - - - W 6 9 3 5 - - -
02/08:30pm - - - - - WNW 6 7 3 4 - - -
02/08:00pm - - - - - WNW 4 6 2 3 - - -
02/07:30pm - - - - - NNW 6 13 3 7 - - -
02/07:00pm - - - - - NNW 6 9 3 5 - - -
02/06:30pm - - - - - NNW 6 7 3 4 - - -
02/06:00pm - - - - - N 6 9 3 5 - - -
02/05:30pm - - - - - N 6 7 3 4 - - -
02/05:00pm - - - - - NNE 7 11 4 6 - - -
02/04:30pm - - - - - NNE 11 15 6 8 - - -
02/04:00pm - - - - - NNE 9 13 5 7 - - -
02/03:30pm - - - - - N 9 13 5 7 - - -
02/03:00pm - - - - - NNE 13 17 7 9 - - -
02/02:30pm - - - - - NNE 13 17 7 9 - - -
02/02:00pm - - - - - NE 9 15 5 8 - - -
02/01:30pm - - - - - ENE 11 17 6 9 - - -
02/01:00pm - - - - - NE 9 13 5 7 - - -
02/12:30pm - - - - - NE 9 13 5 7 - - -
02/12:00pm - - - - - ESE 6 9 3 5 - - -
02/11:30am - - - - - SE 6 9 3 5 - - -
02/11:00am - - - - - ESE 6 9 3 5 - - -
02/10:30am - - - - - NNW 2 7 1 4 - - -
02/10:00am - - - - - NW 6 9 3 5 - - -
02/09:30am - - - - - W 7 9 4 5 - - -
02/09:00am - - - - - W 9 15 5 8 - - -
02/08:30am - - - - - W 7 13 4 7 - - -
02/08:00am - - - - - W 9 13 5 7 - - -
02/07:30am - - - - - W 7 9 4 5 - - -
02/07:00am - - - - - WSW 9 11 5 6 - - -
02/06:30am - - - - - SW 7 9 4 5 - - -
02/06:00am - - - - - SW 7 9 4 5 - - -
02/05:30am - - - - - WSW 6 9 3 5 - - -
02/05:00am - - - - - CALM 0 0 0 0 - - -
02/04:30am - - - - - SW 2 6 1 3 - - -
02/04:00am - - - - - SW 2 6 1 3 - - -
02/03:30am - - - - - WSW 7 13 4 7 - - -
02/03:00am - - - - - SW 6 7 3 4 - - -
02/02:30am - - - - - SW 6 7 3 4 - - -
02/02:00am - - - - - W 6 7 3 4 - - -
02/01:30am - - - - - SW 6 9 3 5 - - -
02/01:00am - - - - - SW 6 9 3 5 - - -
02/12:30am - - - - - SW 11 17 6 9 - - -
02/12:00am - - - - - SW 7 13 4 7 - - -
 
Date/Time
EST
Temp
°C
App
Temp
°C
Dew
Point
Rel
Hum
%
Delta-T
°C
Wind Press
QNH
hPa
Press
MSL
hPa
Rain
since 9 am
mm
Dir
 
Spd
km/h
Gust
km/h
Spd
kts
Gust
kts
01/11:30pm - - - - - SW 11 17 6 9 - - -
01/11:00pm - - - - - WSW 11 17 6 9 - - -
01/10:30pm - - - - - W 11 20 6 11 - - -
01/10:00pm - - - - - W 13 19 7 10 - - -
01/09:30pm - - - - - WSW 11 19 6 10 - - -
01/09:00pm - - - - - W 9 13 5 7 - - -
01/08:30pm - - - - - WSW 11 20 6 11 - - -
01/08:00pm - - - - - WSW 9 13 5 7 - - -
01/07:30pm - - - - - WSW 9 13 5 7 - - -
01/07:00pm - - - - - W 7 13 4 7 - - -
01/06:30pm - - - - - W 11 17 6 9 - - -

Other Formats:

Comma delimited format used in spreadsheet applications
http://www.bom.gov.au/fwo/IDN60801/IDN60801.94780.axf

JavaScript Object Notation format (JSON) in row-major order
http://www.bom.gov.au/fwo/IDN60801/IDN60801.94780.json